EST,Max TemperatureF,Mean TemperatureF,Min TemperatureF,Max Dew PointF,MeanDew PointF,Min DewpointF,Max Humidity, Mean Humidity, Min Humidity, Max Sea Level PressureIn, Mean Sea Level PressureIn, Min Sea Level PressureIn, Max VisibilityMiles, Mean VisibilityMiles, Min VisibilityMiles, Max Wind SpeedMPH, Mean Wind SpeedMPH, Max Gust SpeedMPH,PrecipitationIn, CloudCover, Events, WindDirDegrees
2011-11-1,82,76,70,71,69,68,93,81,62,30.09,30.04,29.98,10,10,9,23,13,33,0.01,5,Rain,21
2011-11-2,82,77,73,69,65,59,83,66,54,30.14,30.09,30.05,10,10,10,18,15,28,0.03,4,Rain,53
2011-11-3,82,78,73,65,62,56,68,61,53,30.10,30.04,29.99,10,10,10,16,10,22,0.00,2,,75
2011-11-4,84,73,64,67,62,51,90,69,46,29.96,29.90,29.82,10,10,10,16,6,25,0.00,2,,277
2011-11-5,80,69,59,67,58,49,88,68,52,30.02,29.96,29.92,10,10,6,22,13,31,0.15,3,Rain,349
2011-11-6,82,76,72,66,64,62,78,65,60,30.11,30.06,29.99,10,10,5,21,16,28,0.02,5,Rain,54
2011-11-7,81,76,71,67,61,57,87,60,48,30.13,30.08,30.05,10,10,8,18,14,25,0.01,3,Rain,51
2011-11-8,81,74,68,69,63,59,87,66,54,30.05,30.02,29.98,10,10,7,16,10,23,0.03,4,Rain,30
2011-11-9,82,75,68,67,64,58,90,72,45,30.01,29.95,29.89,10,10,10,16,7,21,0.00,3,,350
2011-11-10,82,74,64,65,60,56,93,65,41,29.96,29.91,29.86,10,10,10,13,8,,0.00,1,,317
2011-11-11,75,68,60,62,57,54,90,72,51,30.16,30.06,29.93,10,10,8,18,10,23,0.00,2,,344
2011-11-12,77,68,59,58,56,54,87,62,46,30.24,30.19,30.15,10,10,10,18,10,24,0.00,4,,49
2011-11-13,79,76,72,68,63,56,79,65,57,30.21,30.16,30.12,10,10,10,16,13,23,0.00,4,,72
2011-11-14,82,78,75,75,72,68,90,81,74,30.14,30.08,30.04,10,10,8,17,12,22,0.00,6,Rain,88
2011-11-15,84,81,78,75,74,73,90,82,72,30.08,30.04,30.02,10,10,7,16,13,23,0.00,4,,131
2011-11-16,82,80,78,75,72,71,88,78,69,30.06,30.03,29.99,10,10,10,14,11,21,0.00,1,,138
2011-11-17,84,80,75,75,73,72,94,84,69,30.09,30.02,29.96,10,10,8,14,5,,0.01,3,,163
2011-11-18,77,75,73,73,71,68,94,86,76,30.17,30.11,30.05,10,8,2,22,13,33,0.17,8,Rain,53
2011-11-19,81,78,75,71,70,68,83,77,65,30.21,30.16,30.13,10,10,10,21,16,26,0.00,5,,73
2011-11-20,81,78,75,73,71,69,94,80,72,30.22,30.17,30.14,10,9,4,20,14,25,0.06,5,Rain,70
2011-11-21,82,80,77,73,71,68,88,77,70,30.22,30.16,30.12,10,10,10,16,12,22,0.00,4,,98
2011-11-22,81,78,75,69,65,60,76,65,49,30.18,30.14,30.11,10,10,10,13,10,,0.00,2,,99
2011-11-23,82,78,73,69,66,62,84,68,49,30.13,30.07,30.01,10,10,10,13,7,,0.00,2,,217
2011-11-24,81,75,69,68,63,55,90,70,50,30.19,30.10,30.04,10,10,10,20,10,24,0.00,2,,8
2011-11-25,78,76,73,59,55,51,57,49,43,30.22,30.17,30.13,10,10,10,23,15,29,0.00,5,,76
2011-11-26,80,76,72,64,59,55,76,56,45,30.21,30.15,30.11,10,10,10,21,15,28,0.01,5,Rain,85
2011-11-27,80,76,73,67,63,55,79,62,46,30.10,30.05,29.99,10,10,4,20,15,25,0.07,4,Rain,110
2011-11-28,81,77,71,70,68,66,87,74,62,29.98,29.94,29.89,10,10,10,20,14,28,0.01,5,,162
2011-11-29,78,70,61,63,57,52,88,69,43,30.04,29.98,29.93,10,10,10,17,10,21,0.00,4,,316
2011-11-30,75,65,55,56,54,51,90,69,46,30.06,30.01,29.95,10,10,10,12,5,,0.00,0,,319